createdAt,value
2022-11-22T00:00:44.950Z,37.20
2022-11-22T00:03:12.412Z,37.00
2022-11-22T00:05:39.525Z,37.10
2022-11-22T00:08:07.030Z,37.10
2022-11-22T00:10:36.070Z,37.00
2022-11-22T00:13:06.897Z,37.10
2022-11-22T00:15:33.872Z,37.10
2022-11-22T00:18:00.965Z,37.70
2022-11-22T00:20:28.240Z,37.10
2022-11-22T00:23:00.415Z,37.00
2022-11-22T00:25:29.735Z,37.10
2022-11-22T00:27:56.590Z,37.10
2022-11-22T00:30:23.479Z,37.00
2022-11-22T00:32:50.477Z,37.10
2022-11-22T00:35:18.936Z,37.00
2022-11-22T00:37:45.902Z,37.10
2022-11-22T00:40:12.922Z,37.10
2022-11-22T00:42:39.873Z,37.10
2022-11-22T00:45:10.139Z,37.10
2022-11-22T00:47:37.164Z,37.20
2022-11-22T00:50:05.735Z,37.20
2022-11-22T00:52:32.667Z,37.10
2022-11-22T00:54:59.556Z,37.10
2022-11-22T00:57:26.503Z,37.10
2022-11-22T00:59:53.437Z,37.20
2022-11-22T01:02:20.464Z,37.10
2022-11-22T01:04:47.453Z,37.20
2022-11-22T01:07:14.499Z,37.20
2022-11-22T01:09:41.532Z,37.20
2022-11-22T01:12:08.979Z,37.20
2022-11-22T01:14:35.953Z,37.10
2022-11-22T01:17:02.986Z,37.20
2022-11-22T01:19:30.374Z,37.20
2022-11-22T01:21:57.912Z,37.00
2022-11-22T01:24:25.149Z,37.20
2022-11-22T01:26:52.183Z,37.10
2022-11-22T01:29:19.125Z,37.20
2022-11-22T01:31:45.994Z,37.10
2022-11-22T01:34:13.289Z,37.00
2022-11-22T01:36:40.209Z,37.20
2022-11-22T01:39:07.155Z,37.10
2022-11-22T01:41:34.101Z,37.10
2022-11-22T01:44:19.838Z,37.20
2022-11-22T01:46:55.730Z,37.20
2022-11-22T01:49:34.235Z,37.20
2022-11-22T01:52:17.669Z,37.30
2022-11-22T01:54:55.373Z,37.30
2022-11-22T01:57:31.178Z,37.30
2022-11-22T02:00:10.046Z,37.30
2022-11-22T02:02:38.068Z,37.20
2022-11-22T02:05:19.153Z,37.20
2022-11-22T02:08:40.511Z,37.40
2022-11-22T02:11:10.953Z,37.30
2022-11-22T02:13:43.771Z,37.20
2022-11-22T02:16:12.150Z,37.20
2022-11-22T02:18:40.256Z,37.20
2022-11-22T02:21:08.922Z,37.20
2022-11-22T02:23:53.270Z,37.20
2022-11-22T02:26:21.002Z,37.30
2022-11-22T02:28:49.381Z,37.20
2022-11-22T02:31:40.595Z,37.30
2022-11-22T02:34:08.800Z,37.30
2022-11-22T02:36:51.154Z,37.20
2022-11-22T02:39:26.330Z,37.30
2022-11-22T02:41:55.974Z,37.30
2022-11-22T02:44:24.428Z,37.30
2022-11-22T02:46:55.920Z,37.30
2022-11-22T02:49:25.287Z,37.20
2022-11-22T02:51:53.377Z,37.30
2022-11-22T02:54:20.757Z,37.20
2022-11-22T02:56:48.344Z,37.20
2022-11-22T02:59:15.285Z,37.20
2022-11-22T03:01:46.585Z,37.20
2022-11-22T03:04:24.706Z,37.20
2022-11-22T03:07:01.154Z,37.30
2022-11-22T03:09:29.354Z,37.30
2022-11-22T03:11:56.972Z,37.20
2022-11-22T03:14:23.989Z,37.20
2022-11-22T03:16:51.453Z,37.20
2022-11-22T03:19:18.523Z,37.20
2022-11-22T03:21:46.427Z,37.20
2022-11-22T03:24:13.942Z,37.10
2022-11-22T03:26:41.234Z,37.30
2022-11-22T03:29:08.114Z,37.30
2022-11-22T03:31:36.037Z,37.30
2022-11-22T03:34:02.978Z,37.30
2022-11-22T03:36:29.874Z,37.30
2022-11-22T03:38:56.764Z,37.30
2022-11-22T03:41:23.624Z,37.20
2022-11-22T03:43:50.635Z,37.30
2022-11-22T03:46:19.576Z,37.30
2022-11-22T03:48:47.347Z,37.30
2022-11-22T03:51:14.645Z,37.30
2022-11-22T03:53:41.637Z,37.30
2022-11-22T03:56:08.998Z,37.30
2022-11-22T03:58:35.946Z,37.30
2022-11-22T04:01:03.691Z,37.30
2022-11-22T04:03:31.127Z,37.30
2022-11-22T04:05:58.235Z,37.30
2022-11-22T04:08:25.423Z,37.20
2022-11-22T04:10:53.112Z,37.30
2022-11-22T04:13:20.375Z,37.20
2022-11-22T04:15:47.280Z,37.20
2022-11-22T04:18:14.972Z,37.30
2022-11-22T04:21:00.611Z,37.40
2022-11-22T04:23:32.441Z,37.20
2022-11-22T04:26:01.047Z,37.30
2022-11-22T04:28:53.663Z,37.20
2022-11-22T04:31:33.197Z,37.20
2022-11-22T04:34:00.261Z,37.20
2022-11-22T04:36:27.305Z,37.20
2022-11-22T04:38:54.182Z,37.30
2022-11-22T04:41:21.207Z,37.20
2022-11-22T04:44:06.359Z,37.30
2022-11-22T04:46:33.344Z,37.30
2022-11-22T04:49:00.178Z,37.30
2022-11-22T04:51:45.323Z,37.30
2022-11-22T04:54:12.202Z,37.30
2022-11-22T04:56:39.064Z,37.30
2022-11-22T04:59:05.930Z,37.30
2022-11-22T05:01:32.866Z,37.30
2022-11-22T05:03:59.858Z,37.30
2022-11-22T05:06:26.807Z,37.30
2022-11-22T05:08:53.808Z,37.30
2022-11-22T05:11:22.034Z,37.30
2022-11-22T05:13:48.988Z,37.40
2022-11-22T05:16:16.311Z,37.40
2022-11-22T05:18:43.894Z,37.30
2022-11-22T05:21:14.577Z,37.30
2022-11-22T05:23:56.975Z,37.30
2022-11-22T05:26:31.380Z,37.30
2022-11-22T05:29:02.961Z,37.40
2022-11-22T05:31:30.107Z,37.30
2022-11-22T05:33:57.811Z,37.30
2022-11-22T05:36:26.690Z,37.30
2022-11-22T05:38:56.065Z,37.30
2022-11-22T05:41:22.918Z,37.30
2022-11-22T05:43:49.984Z,37.30
2022-11-22T05:46:25.310Z,37.30
2022-11-22T05:48:54.952Z,37.40
2022-11-22T05:51:30.661Z,37.80
2022-11-22T05:54:00.865Z,37.50
2022-11-22T05:56:30.543Z,37.40
2022-11-22T05:58:57.643Z,37.30
2022-11-22T06:01:24.895Z,37.30
2022-11-22T06:03:52.664Z,37.40
2022-11-22T06:06:20.052Z,37.40
2022-11-22T06:08:48.661Z,37.40
2022-11-22T06:11:23.017Z,37.40
2022-11-22T06:13:59.833Z,37.40
2022-11-22T06:16:27.814Z,37.30
2022-11-22T06:18:57.247Z,37.50
2022-11-22T06:21:26.250Z,37.40
2022-11-22T06:23:56.533Z,37.40
2022-11-22T06:26:24.984Z,37.40
2022-11-22T06:28:52.720Z,37.40
2022-11-22T06:31:22.243Z,37.40
2022-11-22T06:33:53.186Z,37.30
2022-11-22T06:36:33.253Z,37.30
2022-11-22T06:39:03.765Z,37.30
2022-11-22T06:41:37.134Z,37.30
2022-11-22T06:44:07.643Z,37.40
2022-11-22T06:46:37.154Z,37.50
2022-11-22T06:49:04.961Z,37.50
2022-11-22T06:51:33.277Z,37.50
2022-11-22T06:54:01.722Z,37.70
2022-11-22T06:56:38.090Z,37.80
2022-11-22T06:59:07.328Z,37.90
2022-11-22T07:01:35.885Z,37.90
2022-11-22T07:04:03.771Z,37.90
2022-11-22T07:06:38.590Z,38.00
2022-11-22T07:09:11.675Z,38.10
2022-11-22T07:11:40.304Z,38.20
2022-11-22T07:14:09.137Z,38.10
2022-11-22T07:16:37.990Z,38.20
2022-11-22T07:19:06.130Z,38.10
2022-11-22T07:21:33.325Z,38.10
2022-11-22T07:24:00.239Z,38.20
2022-11-22T07:26:28.716Z,38.20
2022-11-22T07:28:55.975Z,38.10
2022-11-22T07:31:22.905Z,38.20
2022-11-22T07:33:49.928Z,38.20
2022-11-22T07:36:21.064Z,38.10
2022-11-22T07:38:49.162Z,38.10
2022-11-22T07:41:18.330Z,38.10
2022-11-22T07:43:46.909Z,38.10
2022-11-22T07:46:29.837Z,38.00
2022-11-22T07:48:58.230Z,37.90
2022-11-22T07:51:28.448Z,37.90
2022-11-22T07:53:57.697Z,38.00
2022-11-22T07:56:24.642Z,37.90
2022-11-22T07:58:54.359Z,37.90
2022-11-22T08:01:23.585Z,37.90
2022-11-22T08:03:50.747Z,37.90
2022-11-22T08:06:17.867Z,37.90
2022-11-22T08:08:45.064Z,38.00
2022-11-22T08:11:12.931Z,38.00
2022-11-22T08:13:40.753Z,37.60
2022-11-22T08:16:16.255Z,38.30
2022-11-22T08:18:48.643Z,38.30
2022-11-22T08:21:18.413Z,38.30
2022-11-22T08:23:48.678Z,38.20
2022-11-22T08:26:18.619Z,38.20
2022-11-22T08:28:45.686Z,38.20
2022-11-22T08:31:16.822Z,38.30
2022-11-22T08:33:43.752Z,38.30
2022-11-22T08:36:11.657Z,38.40
2022-11-22T08:38:38.975Z,38.40
2022-11-22T08:41:09.235Z,38.40
2022-11-22T08:43:36.184Z,38.40
2022-11-22T08:46:03.355Z,38.40
2022-11-22T08:48:33.996Z,38.30
2022-11-22T08:51:06.522Z,38.20
2022-11-22T08:53:36.392Z,38.10
2022-11-22T08:56:05.537Z,38.20
2022-11-22T08:58:34.007Z,38.10
2022-11-22T09:01:09.437Z,38.10
2022-11-22T09:03:38.263Z,38.00
2022-11-22T09:11:52.200Z,38.20
2022-11-22T09:14:19.122Z,38.10
2022-11-22T09:16:45.970Z,38.10
2022-11-22T09:19:15.921Z,37.90
2022-11-22T09:21:44.655Z,38.00
2022-11-22T09:24:11.626Z,38.00
2022-11-22T09:26:41.723Z,37.70
2022-11-22T09:29:11.723Z,37.70
2022-11-22T09:31:41.881Z,37.80
2022-11-22T09:34:08.925Z,38.00
2022-11-22T09:36:38.392Z,37.80
2022-11-22T09:39:05.211Z,38.10
2022-11-22T09:41:43.096Z,37.80
2022-11-22T09:44:36.207Z,37.70
2022-11-22T09:47:32.562Z,37.70
2022-11-22T09:50:53.182Z,37.70
2022-11-22T09:53:26.104Z,37.70
2022-11-22T09:55:59.506Z,36.60
2022-11-22T09:58:47.615Z,36.40
2022-11-22T10:01:17.225Z,36.10
2022-11-22T10:04:24.918Z,36.40
2022-11-22T10:07:42.531Z,36.20
2022-11-22T10:10:29.852Z,36.50
2022-11-22T10:13:09.269Z,36.50
2022-11-22T10:16:08.786Z,36.80
2022-11-22T10:18:56.230Z,36.60
2022-11-22T10:21:23.533Z,36.60
2022-11-22T10:23:51.694Z,36.80
2022-11-22T10:26:21.407Z,36.80
2022-11-22T10:29:37.236Z,36.80
2022-11-22T10:32:42.607Z,36.70
2022-11-22T10:35:50.451Z,36.90
2022-11-22T10:38:34.614Z,36.80
2022-11-22T10:41:41.878Z,36.80
2022-11-22T10:44:54.350Z,37.10
2022-11-22T10:47:24.404Z,36.90
2022-11-22T10:50:09.102Z,37.10
2022-11-22T10:53:10.228Z,36.90
2022-11-22T10:55:46.456Z,37.10
2022-11-22T10:58:58.498Z,37.00
2022-11-22T11:01:34.549Z,36.70
2022-11-22T11:04:04.069Z,36.90
2022-11-22T11:12:43.198Z,36.30
2022-11-22T11:15:38.002Z,36.30
2022-11-22T11:18:28.860Z,36.10
2022-11-22T11:20:58.941Z,36.40
2022-11-22T11:23:25.895Z,36.50
2022-11-22T11:25:53.238Z,36.60
2022-11-22T11:28:24.909Z,36.60
2022-11-22T11:31:10.419Z,36.50
2022-11-22T11:33:40.819Z,36.70
2022-11-22T11:36:24.503Z,37.30
2022-11-22T11:38:55.158Z,36.30
2022-11-22T11:41:26.430Z,36.50
2022-11-22T11:43:57.214Z,36.50
2022-11-22T11:46:30.284Z,36.40
2022-11-22T11:49:10.414Z,36.40
2022-11-22T11:51:47.873Z,35.90
2022-11-22T11:54:21.629Z,35.80
2022-11-22T11:56:58.056Z,36.00
2022-11-22T11:59:39.815Z,35.70
2022-11-22T12:02:12.185Z,35.30
2022-11-22T12:05:05.230Z,35.50
2022-11-22T12:07:35.449Z,35.10
2022-11-22T12:10:28.731Z,35.30
2022-11-22T12:13:57.763Z,35.40
2022-11-22T12:16:36.499Z,35.10
2022-11-22T12:19:31.073Z,35.40
2022-11-22T12:22:05.798Z,35.10
2022-11-22T12:25:02.797Z,35.20
2022-11-22T12:27:31.458Z,35.10
2022-11-22T12:29:59.234Z,35.20
2022-11-22T12:32:36.967Z,35.20
2022-11-22T12:35:14.797Z,35.80
2022-11-22T12:37:50.971Z,35.00
2022-11-22T12:40:25.460Z,35.20
2022-11-22T12:43:29.767Z,35.20
2022-11-22T12:46:11.579Z,35.10
2022-11-22T12:49:38.485Z,35.00
2022-11-22T12:52:34.818Z,35.10
2022-11-22T12:55:36.711Z,35.10
2022-11-22T12:58:06.346Z,35.20
2022-11-22T13:00:41.835Z,35.20
2022-11-22T13:03:25.979Z,35.20
2022-11-22T13:05:58.611Z,35.20
2022-11-22T13:08:39.465Z,35.20
2022-11-22T13:11:30.326Z,35.20
2022-11-22T13:14:17.755Z,34.50
2022-11-22T13:16:51.031Z,33.90
2022-11-22T13:19:24.286Z,33.90
2022-11-22T13:22:15.443Z,33.90
2022-11-22T13:24:59.786Z,34.10
2022-11-22T13:27:34.226Z,34.20
2022-11-22T13:30:03.299Z,34.40
2022-11-22T13:32:36.030Z,34.50
2022-11-22T13:35:18.690Z,34.70
2022-11-22T13:37:57.404Z,34.80
2022-11-22T13:40:55.367Z,34.90
2022-11-22T13:43:23.651Z,35.00
2022-11-22T13:45:54.232Z,35.10
2022-11-22T13:48:39.690Z,35.10
2022-11-22T13:51:15.532Z,35.20
2022-11-22T13:53:48.073Z,35.30
2022-11-22T13:56:21.169Z,35.40
2022-11-22T13:58:51.029Z,35.50
2022-11-22T14:01:36.632Z,35.70
2022-11-22T14:04:26.653Z,35.70
2022-11-22T14:07:02.600Z,35.80
2022-11-22T14:09:56.806Z,35.80
2022-11-22T14:12:58.628Z,35.60
2022-11-22T14:16:07.628Z,35.70
2022-11-22T14:18:51.254Z,35.70
2022-11-22T14:21:54.148Z,35.70
2022-11-22T14:25:17.703Z,35.70
2022-11-22T14:28:25.894Z,35.70
2022-11-22T14:30:57.155Z,35.70
2022-11-22T14:33:31.295Z,35.60
2022-11-22T14:36:07.295Z,35.70
2022-11-22T14:38:42.550Z,35.70
2022-11-22T14:41:27.953Z,35.80
2022-11-22T14:44:34.160Z,35.70
2022-11-22T14:47:14.800Z,35.80
2022-11-22T14:49:48.570Z,35.90
2022-11-22T14:52:26.518Z,35.90
2022-11-22T14:55:06.007Z,36.00
2022-11-22T14:57:37.109Z,36.00
2022-11-22T15:00:23.964Z,35.90
2022-11-22T15:03:41.277Z,36.00
2022-11-22T15:09:18.388Z,36.10
2022-11-22T15:09:53.850Z,35.50
2022-11-22T15:12:57.665Z,36.10
2022-11-22T15:59:41.549Z,35.90
2022-11-22T16:02:21.829Z,35.30
2022-11-22T16:06:06.704Z,33.90
2022-11-22T16:08:00.444Z,35.80
2022-11-22T16:10:45.672Z,35.80
2022-11-22T16:13:21.828Z,35.30
2022-11-22T16:16:10.479Z,35.90
2022-11-22T16:18:39.138Z,35.90
2022-11-22T16:21:10.746Z,35.90
2022-11-22T16:23:48.134Z,35.90
2022-11-22T16:26:22.055Z,35.90
2022-11-22T16:28:51.664Z,36.00
2022-11-22T16:31:31.133Z,35.90
2022-11-22T16:33:59.295Z,36.00
2022-11-22T16:36:30.255Z,36.00
2022-11-22T16:38:57.201Z,36.00
2022-11-22T16:41:29.702Z,35.90
2022-11-22T16:44:02.854Z,36.00
2022-11-22T16:46:30.433Z,36.10
2022-11-22T16:48:57.737Z,36.10
2022-11-22T16:51:29.503Z,36.00
2022-11-22T16:54:06.016Z,36.10
2022-11-22T16:56:33.535Z,36.10
2022-11-22T16:59:00.575Z,35.50
2022-11-22T17:01:35.760Z,36.00
2022-11-22T17:04:03.331Z,36.10
2022-11-22T17:06:31.985Z,36.00
2022-11-22T17:09:00.779Z,36.10
2022-11-22T17:11:31.790Z,35.50
2022-11-22T17:14:00.362Z,35.50
2022-11-22T17:16:27.404Z,36.00
2022-11-22T17:18:54.502Z,36.10
2022-11-22T17:21:37.892Z,36.10
2022-11-22T17:24:22.882Z,36.10
2022-11-22T17:26:53.118Z,36.10
2022-11-22T17:29:43.343Z,36.00
2022-11-22T17:32:10.265Z,36.10
2022-11-22T17:34:37.198Z,35.90
2022-11-22T17:37:04.303Z,36.00
2022-11-22T17:39:31.556Z,36.00
2022-11-22T17:41:58.868Z,35.90
2022-11-22T17:44:26.004Z,35.90
2022-11-22T17:46:53.469Z,36.00
2022-11-22T17:49:23.520Z,36.00
2022-11-22T17:51:50.524Z,36.00
2022-11-22T17:54:17.478Z,36.10
2022-11-22T17:56:44.768Z,36.10
2022-11-22T17:59:11.803Z,36.20
2022-11-22T18:01:38.876Z,36.10
2022-11-22T18:04:05.903Z,36.20
2022-11-22T18:06:32.924Z,36.20
2022-11-22T18:09:03.296Z,36.20
2022-11-22T18:11:30.302Z,36.20
2022-11-22T18:13:57.258Z,36.20
2022-11-22T18:16:28.552Z,36.20
2022-11-22T18:18:58.282Z,36.20
2022-11-22T18:21:29.368Z,36.20
2022-11-22T18:24:01.417Z,36.10
2022-11-22T18:26:39.291Z,36.10
2022-11-22T18:31:55.184Z,36.10
2022-11-22T18:34:23.479Z,36.10
2022-11-22T18:37:06.816Z,36.20
2022-11-22T18:39:38.175Z,36.30
2022-11-22T18:42:17.068Z,36.30
2022-11-22T18:44:44.704Z,36.10
2022-11-22T18:47:11.818Z,36.10
2022-11-22T18:49:38.888Z,36.00
2022-11-22T18:52:06.496Z,36.00
2022-11-22T18:54:34.263Z,36.10
2022-11-22T18:57:01.445Z,35.90
2022-11-22T18:59:28.644Z,36.00
2022-11-22T19:01:55.802Z,36.00
2022-11-22T19:04:22.976Z,35.50
2022-11-22T19:06:50.161Z,35.90
2022-11-22T19:09:18.009Z,35.90
2022-11-22T19:11:45.421Z,35.90
2022-11-22T19:14:12.517Z,36.00
2022-11-22T19:16:39.806Z,35.90
2022-11-22T19:19:08.467Z,36.00
2022-11-22T19:21:36.027Z,35.90
2022-11-22T19:24:03.366Z,35.40
2022-11-22T19:26:30.374Z,36.00
2022-11-22T19:29:02.517Z,35.90
2022-11-22T19:31:31.291Z,36.10
2022-11-22T19:33:59.819Z,36.00
2022-11-22T19:36:33.372Z,36.00
2022-11-22T19:39:04.193Z,36.10
2022-11-22T19:41:32.003Z,36.90
2022-11-22T19:43:59.251Z,36.10
2022-11-22T19:46:26.761Z,36.10
2022-11-22T19:48:57.120Z,36.10
2022-11-22T19:51:25.640Z,36.10
2022-11-22T19:54:03.962Z,36.20
2022-11-22T19:56:37.548Z,36.30
2022-11-22T19:59:08.795Z,36.20
2022-11-22T20:01:36.195Z,36.20
2022-11-22T20:04:06.577Z,36.20
2022-11-22T20:06:38.125Z,36.30
2022-11-22T20:09:13.027Z,36.20
2022-11-22T20:11:42.295Z,35.80
2022-11-22T20:14:10.531Z,36.20
2022-11-22T20:16:42.919Z,36.30
2022-11-22T20:19:12.372Z,36.40
2022-11-22T20:21:40.615Z,36.30
2022-11-22T20:24:09.181Z,36.30
2022-11-22T20:26:36.415Z,36.40
2022-11-22T20:29:15.045Z,36.30
2022-11-22T20:31:42.293Z,36.50
2022-11-22T20:34:11.929Z,36.40
2022-11-22T20:36:39.051Z,36.40
2022-11-22T20:39:10.663Z,36.30
2022-11-22T20:41:41.955Z,36.40
2022-11-22T20:44:13.917Z,36.40
2022-11-22T20:46:41.425Z,36.50
2022-11-22T20:49:08.511Z,36.50
2022-11-22T20:51:36.279Z,36.50
2022-11-22T20:54:04.960Z,36.90
2022-11-22T20:56:32.925Z,36.40
2022-11-22T20:59:00.112Z,36.50
2022-11-22T21:01:29.929Z,36.50
2022-11-22T21:03:57.591Z,36.50
2022-11-22T21:06:29.117Z,36.50
2022-11-22T21:08:56.391Z,36.50
2022-11-22T21:11:26.998Z,36.50
2022-11-22T21:13:56.144Z,36.50
2022-11-22T21:16:27.027Z,36.50
2022-11-22T21:19:04.799Z,36.60
2022-11-22T21:21:35.797Z,36.60
2022-11-22T21:24:04.874Z,36.60
2022-11-22T21:26:32.362Z,36.60
2022-11-22T21:29:00.385Z,36.60
2022-11-22T21:31:28.401Z,36.60
2022-11-22T21:33:55.470Z,36.80
2022-11-22T21:36:23.024Z,36.40
2022-11-22T21:38:50.166Z,36.60
2022-11-22T21:44:09.928Z,36.70
2022-11-22T21:46:37.477Z,36.60
2022-11-22T21:49:04.484Z,36.60
2022-11-22T21:51:32.157Z,36.60
2022-11-22T21:54:03.445Z,36.20
2022-11-22T21:56:31.757Z,36.80
2022-11-22T21:58:58.974Z,36.60
2022-11-22T22:01:26.698Z,36.70
2022-11-22T22:03:54.632Z,36.70
2022-11-22T22:06:21.815Z,36.70
2022-11-22T22:08:49.033Z,36.70
2022-11-22T22:11:16.814Z,36.70
2022-11-22T22:13:44.065Z,36.80
2022-11-22T22:16:15.906Z,36.80
2022-11-22T22:18:43.647Z,36.80
2022-11-22T22:21:12.989Z,36.80
2022-11-22T22:23:41.580Z,36.80
2022-11-22T22:26:12.945Z,36.90
2022-11-22T22:28:41.366Z,36.80
2022-11-22T22:31:14.433Z,36.80
2022-11-22T22:33:42.377Z,36.90
2022-11-22T22:36:11.832Z,36.90
2022-11-22T22:38:40.788Z,36.90
2022-11-22T22:41:11.555Z,36.90
2022-11-22T22:43:44.618Z,37.00
2022-11-22T22:46:14.310Z,36.80
2022-11-22T22:48:42.785Z,36.90
2022-11-22T22:51:30.662Z,36.80
2022-11-22T22:54:00.865Z,37.00
2022-11-22T22:56:30.711Z,36.90
2022-11-22T22:59:00.754Z,36.90
2022-11-22T23:01:31.409Z,37.00
2022-11-22T23:04:01.425Z,37.00
2022-11-22T23:06:35.882Z,37.00
2022-11-22T23:09:06.746Z,37.10
2022-11-22T23:11:53.564Z,37.00
2022-11-22T23:14:25.146Z,37.00
2022-11-22T23:16:57.390Z,37.00
2022-11-22T23:19:26.387Z,37.00
2022-11-22T23:21:54.877Z,37.00
2022-11-22T23:24:22.127Z,37.60
2022-11-22T23:26:49.222Z,36.90
2022-11-22T23:29:16.883Z,37.10
2022-11-22T23:31:43.845Z,37.00
2022-11-22T23:34:12.200Z,37.00
2022-11-22T23:36:41.219Z,37.00
2022-11-22T23:39:09.199Z,37.00
2022-11-22T23:41:36.247Z,37.10
2022-11-22T23:44:03.806Z,37.00
2022-11-22T23:46:30.985Z,37.10
2022-11-22T23:49:00.723Z,37.10
2022-11-22T23:51:30.763Z,37.00
2022-11-22T23:54:00.886Z,37.10
2022-11-22T23:56:33.118Z,37.80
2022-11-22T23:59:02.638Z,37.10
